createdAt,value
2023-04-13T00:01:50.434Z,8.90
2023-04-13T00:04:19.079Z,8.90
2023-04-13T00:06:50.679Z,8.85
2023-04-13T00:09:19.716Z,8.83
2023-04-13T00:11:49.297Z,8.85
2023-04-13T00:14:19.002Z,8.83
2023-04-13T00:16:48.276Z,8.81
2023-04-13T00:19:18.206Z,8.79
2023-04-13T00:21:46.575Z,8.78
2023-04-13T00:24:16.568Z,8.80
2023-04-13T00:26:45.800Z,8.81
2023-04-13T00:29:13.939Z,8.81
2023-04-13T00:31:42.349Z,8.79
2023-04-13T00:34:10.876Z,8.79
2023-04-13T00:36:39.360Z,8.79
2023-04-13T00:39:07.649Z,8.78
2023-04-13T00:41:37.511Z,8.78
2023-04-13T00:44:05.997Z,8.76
2023-04-13T00:46:35.056Z,8.75
2023-04-13T00:49:03.540Z,8.76
2023-04-13T00:51:33.185Z,8.74
2023-04-13T00:54:01.771Z,8.73
2023-04-13T00:56:30.346Z,8.72
2023-04-13T00:58:59.954Z,8.74
2023-04-13T01:01:30.556Z,8.71
2023-04-13T01:03:59.626Z,8.70
2023-04-13T01:06:34.114Z,8.72
2023-04-13T01:09:08.665Z,8.69
2023-04-13T01:11:41.735Z,8.69
2023-04-13T01:14:18.249Z,8.70
2023-04-13T01:16:54.086Z,8.69
2023-04-13T01:19:34.198Z,8.71
2023-04-13T01:22:03.992Z,8.67
2023-04-13T01:24:42.305Z,8.58
2023-04-13T01:27:16.670Z,8.52
2023-04-13T01:29:48.493Z,8.47
2023-04-13T01:32:17.559Z,8.46
2023-04-13T01:34:45.929Z,8.49
2023-04-13T01:37:14.603Z,8.50
2023-04-13T01:39:42.645Z,8.46
2023-04-13T01:42:10.787Z,8.49
2023-04-13T01:44:39.105Z,8.47
2023-04-13T01:47:17.059Z,8.40
2023-04-13T01:49:50.018Z,8.42
2023-04-13T01:52:19.436Z,8.42
2023-04-13T01:54:51.478Z,8.41
2023-04-13T01:57:20.443Z,8.44
2023-04-13T01:59:48.786Z,8.46
2023-04-13T02:02:19.397Z,8.47
2023-04-13T02:04:47.771Z,8.49
2023-04-13T02:07:16.505Z,8.46
2023-04-13T02:09:45.510Z,8.42
2023-04-13T02:12:13.974Z,8.41
2023-04-13T02:14:42.859Z,8.44
2023-04-13T02:17:11.008Z,8.40
2023-04-13T02:19:40.983Z,8.42
2023-04-13T02:22:09.189Z,8.44
2023-04-13T02:24:37.585Z,8.42
2023-04-13T02:27:06.328Z,8.38
2023-04-13T02:29:35.127Z,8.39
2023-04-13T02:32:03.500Z,8.38
2023-04-13T02:34:32.488Z,8.34
2023-04-13T02:37:02.776Z,8.35
2023-04-13T02:39:31.227Z,8.37
2023-04-13T02:41:59.345Z,8.37
2023-04-13T02:44:27.674Z,8.36
2023-04-13T02:46:56.252Z,8.34
2023-04-13T02:49:24.735Z,8.33
2023-04-13T02:51:52.793Z,8.36
2023-04-13T02:54:22.569Z,8.35
2023-04-13T02:56:50.981Z,8.30
2023-04-13T02:59:18.993Z,8.20
2023-04-13T03:01:48.078Z,8.21
2023-04-13T03:04:16.528Z,8.20
2023-04-13T03:06:46.358Z,8.16
2023-04-13T03:09:14.414Z,8.08
2023-04-13T03:11:43.443Z,7.94
2023-04-13T03:14:13.081Z,7.80
2023-04-13T03:16:40.717Z,7.65
2023-04-13T03:19:08.338Z,7.50
2023-04-13T03:21:36.194Z,7.45
2023-04-13T03:24:03.900Z,7.43
2023-04-13T03:26:31.716Z,7.43
2023-04-13T03:29:01.685Z,7.46
2023-04-13T03:31:30.328Z,7.51
2023-04-13T03:33:59.088Z,7.55
2023-04-13T03:36:28.815Z,7.56
2023-04-13T03:38:58.398Z,7.60
2023-04-13T03:41:26.500Z,7.66
2023-04-13T03:43:54.779Z,7.69
2023-04-13T03:46:23.803Z,7.75
2023-04-13T03:48:51.349Z,7.76
2023-04-13T03:51:18.855Z,7.77
2023-04-13T03:53:47.187Z,7.77
2023-04-13T03:56:14.743Z,7.77
2023-04-13T03:58:42.851Z,7.73
2023-04-13T04:01:10.759Z,7.70
2023-04-13T04:03:39.780Z,7.69
2023-04-13T04:06:08.398Z,7.70
2023-04-13T04:08:35.906Z,7.69
2023-04-13T04:11:04.379Z,7.67
2023-04-13T04:13:32.095Z,7.68
2023-04-13T04:15:59.763Z,7.66
2023-04-13T04:18:27.585Z,7.54
2023-04-13T04:20:56.420Z,7.38
2023-04-13T04:23:28.373Z,7.30
2023-04-13T04:25:59.253Z,7.20
2023-04-13T04:28:30.206Z,7.20
2023-04-13T04:31:01.206Z,7.17
2023-04-13T04:33:28.774Z,7.21
2023-04-13T04:35:57.606Z,7.20
2023-04-13T04:38:25.345Z,7.18
2023-04-13T04:40:57.436Z,7.17
2023-04-13T04:43:27.086Z,7.19
2023-04-13T04:45:57.718Z,7.17
2023-04-13T04:48:27.197Z,7.19
2023-04-13T04:50:55.976Z,7.17
2023-04-13T04:53:25.187Z,7.19
2023-04-13T04:55:52.717Z,7.21
2023-04-13T04:58:20.712Z,7.17
2023-04-13T05:00:49.749Z,7.14
2023-04-13T05:03:17.467Z,7.20
2023-04-13T05:05:45.121Z,7.22
2023-04-13T05:08:13.177Z,7.22
2023-04-13T05:10:46.132Z,7.20
2023-04-13T05:13:13.898Z,7.22
2023-04-13T05:15:41.521Z,7.22
2023-04-13T05:18:09.118Z,7.27
2023-04-13T05:20:37.748Z,7.31
2023-04-13T05:23:05.344Z,7.33
2023-04-13T05:25:32.888Z,7.37
2023-04-13T05:28:01.720Z,7.42
2023-04-13T05:30:29.455Z,7.45
2023-04-13T05:32:57.112Z,7.50
2023-04-13T05:35:27.946Z,7.54
2023-04-13T05:37:57.262Z,7.56
2023-04-13T05:40:24.890Z,7.62
2023-04-13T05:42:52.458Z,7.68
2023-04-13T05:45:21.528Z,7.71
2023-04-13T05:47:49.165Z,7.78
2023-04-13T05:50:16.753Z,7.84
2023-04-13T05:52:44.315Z,7.91
2023-04-13T05:55:12.543Z,7.91
2023-04-13T05:57:40.818Z,7.84
2023-04-13T06:00:10.417Z,7.81
2023-04-13T06:02:40.368Z,7.77
2023-04-13T06:05:08.547Z,7.72
2023-04-13T06:07:37.011Z,7.74
2023-04-13T06:10:04.986Z,7.79
2023-04-13T06:12:33.494Z,7.84
2023-04-13T06:15:00.981Z,7.88
2023-04-13T06:17:28.615Z,7.92
2023-04-13T06:19:57.516Z,8.02
2023-04-13T06:22:25.106Z,8.12
2023-04-13T06:24:52.803Z,8.24
2023-04-13T06:27:20.397Z,8.28
2023-04-13T06:29:47.914Z,8.35
2023-04-13T06:32:15.664Z,8.43
2023-04-13T06:34:45.690Z,8.48
2023-04-13T06:37:14.592Z,8.52
2023-04-13T06:39:42.108Z,8.58
2023-04-13T06:42:09.675Z,8.60
2023-04-13T06:44:37.233Z,8.62
2023-04-13T06:47:05.832Z,8.60
2023-04-13T06:49:33.771Z,8.59
2023-04-13T06:52:01.345Z,8.65
2023-04-13T06:54:30.419Z,8.68
2023-04-13T06:56:58.196Z,8.69
2023-04-13T06:59:25.903Z,8.70
2023-04-13T07:01:53.535Z,8.68
2023-04-13T07:04:21.376Z,8.65
2023-04-13T07:06:48.949Z,8.62
2023-04-13T07:09:16.917Z,8.61
2023-04-13T07:11:46.250Z,8.58
2023-04-13T07:14:13.748Z,8.60
2023-04-13T07:16:41.248Z,8.57
2023-04-13T07:19:08.758Z,8.55
2023-04-13T07:21:36.332Z,8.57
2023-04-13T07:24:03.858Z,8.61
2023-04-13T07:26:31.712Z,8.64
2023-04-13T07:29:00.968Z,8.60
2023-04-13T07:31:28.736Z,8.60
2023-04-13T07:33:56.530Z,8.62
2023-04-13T07:36:24.227Z,8.61
2023-04-13T07:38:51.799Z,8.66
2023-04-13T07:41:22.442Z,8.69
2023-04-13T07:43:49.972Z,8.72
2023-04-13T07:46:20.366Z,8.73
2023-04-13T07:48:48.055Z,8.75
2023-04-13T07:51:18.874Z,8.74
2023-04-13T07:53:46.989Z,8.73
2023-04-13T07:56:14.743Z,8.69
2023-04-13T07:58:42.612Z,8.66
2023-04-13T08:01:10.519Z,8.70
2023-04-13T08:03:39.599Z,8.71
2023-04-13T08:06:07.699Z,8.75
2023-04-13T08:08:35.654Z,8.79
2023-04-13T08:11:03.173Z,8.86
2023-04-13T08:13:31.455Z,9.01
2023-04-13T08:16:00.328Z,9.14
2023-04-13T08:18:28.237Z,9.21
2023-04-13T08:20:57.125Z,9.26
2023-04-13T08:23:25.404Z,9.30
2023-04-13T08:25:52.974Z,9.29
2023-04-13T08:28:20.536Z,9.28
2023-04-13T08:30:48.254Z,9.29
2023-04-13T08:33:15.820Z,9.29
2023-04-13T08:35:43.387Z,9.30
2023-04-13T08:38:12.566Z,9.28
2023-04-13T08:40:41.748Z,9.30
2023-04-13T08:43:09.321Z,9.33
2023-04-13T08:45:37.188Z,9.41
2023-04-13T08:48:05.213Z,9.53
2023-04-13T08:50:32.866Z,9.65
2023-04-13T08:53:00.718Z,9.78
2023-04-13T08:55:29.758Z,9.88
2023-04-13T08:57:59.300Z,10.00
2023-04-13T09:00:27.139Z,10.13
2023-04-13T09:03:04.941Z,10.64
2023-04-13T09:05:40.149Z,11.13
2023-04-13T09:08:08.830Z,11.34
2023-04-13T09:10:37.733Z,11.46
2023-04-13T09:13:05.620Z,11.56
2023-04-13T09:15:33.624Z,11.87
2023-04-13T09:18:09.428Z,11.94
2023-04-13T09:20:37.890Z,11.95
2023-04-13T09:23:13.567Z,12.00
2023-04-13T09:25:43.073Z,11.95
2023-04-13T09:28:17.238Z,11.82
2023-04-13T09:30:44.855Z,11.64
2023-04-13T09:33:13.644Z,11.45
2023-04-13T09:35:41.553Z,11.29
2023-04-13T09:38:11.674Z,11.16
2023-04-13T09:40:50.507Z,11.11
2023-04-13T09:43:18.010Z,11.10
2023-04-13T09:45:45.633Z,11.10
2023-04-13T10:00:21.981Z,10.97
2023-04-13T13:49:15.563Z,12.99
2023-04-13T14:12:39.572Z,12.14
2023-04-13T14:15:08.074Z,12.09
2023-04-13T14:17:36.216Z,12.08
2023-04-13T14:20:06.383Z,12.03
2023-04-13T14:22:33.868Z,11.99
2023-04-13T14:25:01.614Z,12.05
2023-04-13T14:27:29.102Z,12.07
2023-04-13T14:29:57.962Z,12.06
2023-04-13T14:32:25.540Z,12.10
2023-04-13T14:34:53.346Z,12.10
2023-04-13T14:37:21.403Z,12.11
2023-04-13T14:39:49.347Z,12.06
2023-04-13T14:42:17.315Z,12.07
2023-04-13T14:44:44.825Z,12.08
2023-04-13T14:47:15.767Z,12.06
2023-04-13T14:49:43.558Z,12.05
2023-04-13T14:52:11.390Z,12.05
2023-04-13T14:54:39.061Z,12.04
2023-04-13T14:57:06.575Z,11.99
2023-04-13T14:59:34.105Z,11.92
2023-04-13T15:02:01.807Z,11.82
2023-04-13T15:04:30.936Z,11.79
2023-04-13T15:07:00.168Z,11.83
2023-04-13T15:09:27.862Z,11.89
2023-04-13T15:11:55.462Z,11.91
2023-04-13T15:14:23.263Z,11.89
2023-04-13T15:16:50.919Z,11.83
2023-04-13T15:19:18.468Z,11.82
2023-04-13T15:21:47.320Z,11.72
2023-04-13T15:24:14.803Z,11.61
2023-04-13T15:26:43.070Z,11.47
2023-04-13T15:29:10.635Z,11.29
2023-04-13T15:31:39.595Z,11.13
2023-04-13T15:34:08.648Z,11.02
2023-04-13T15:36:36.507Z,10.88
2023-04-13T15:39:05.621Z,10.76
2023-04-13T15:41:33.186Z,10.65
2023-04-13T15:44:01.863Z,10.61
2023-04-13T15:46:29.796Z,10.68
2023-04-13T15:48:57.660Z,10.67
2023-04-13T15:51:27.269Z,10.61
2023-04-13T15:53:54.823Z,10.51
2023-04-13T15:56:23.702Z,10.43
2023-04-13T15:58:51.217Z,10.43
2023-04-13T16:01:18.719Z,10.41
2023-04-13T16:03:46.613Z,10.35
2023-04-13T16:06:14.327Z,10.30
2023-04-13T16:08:41.833Z,10.29
2023-04-13T16:11:09.353Z,10.24
2023-04-13T16:13:48.186Z,10.20
2023-04-13T16:16:18.136Z,10.11
2023-04-13T16:18:45.676Z,10.07
2023-04-13T16:21:19.031Z,10.03
2023-04-13T16:23:46.851Z,10.01
2023-04-13T16:26:14.355Z,10.00
2023-04-13T16:28:43.206Z,10.03
2023-04-13T16:31:11.225Z,9.98
2023-04-13T16:33:38.876Z,9.98
2023-04-13T16:36:07.123Z,9.99
2023-04-13T16:38:34.671Z,9.96
2023-04-13T16:41:02.183Z,10.00
2023-04-13T16:43:29.851Z,10.00
2023-04-13T16:45:58.736Z,9.96
2023-04-13T16:48:27.795Z,9.98
2023-04-13T16:50:58.839Z,10.01
2023-04-13T16:53:27.548Z,10.03
2023-04-13T16:55:56.869Z,10.00
2023-04-13T16:58:24.398Z,9.98
2023-04-13T17:00:53.126Z,9.97
2023-04-13T17:03:22.253Z,9.97
2023-04-13T17:05:49.949Z,9.96
2023-04-13T17:08:17.474Z,9.97
2023-04-13T17:10:45.921Z,9.97
2023-04-13T17:13:13.953Z,9.94
2023-04-13T17:15:41.511Z,9.89
2023-04-13T17:18:09.075Z,9.82
2023-04-13T17:20:38.642Z,9.77
2023-04-13T17:23:06.237Z,9.72
2023-04-13T17:25:34.791Z,9.67
2023-04-13T17:28:02.282Z,9.57
2023-04-13T17:30:29.925Z,9.48
2023-04-13T17:32:57.569Z,9.41
2023-04-13T17:35:25.119Z,9.43
2023-04-13T17:37:53.996Z,9.48
2023-04-13T17:40:21.643Z,9.54
2023-04-13T17:42:49.134Z,9.55
2023-04-13T17:45:18.373Z,9.50
2023-04-13T17:47:47.203Z,9.42
2023-04-13T17:50:14.913Z,9.37
2023-04-13T17:52:42.502Z,9.28
2023-04-13T17:55:11.752Z,9.20
2023-04-13T17:57:39.337Z,9.17
2023-04-13T18:00:08.254Z,9.10
2023-04-13T18:02:36.054Z,8.99
2023-04-13T18:05:05.093Z,8.86
2023-04-13T18:07:32.687Z,8.75
2023-04-13T18:10:00.306Z,8.65
2023-04-13T18:12:29.225Z,8.61
2023-04-13T18:14:56.816Z,8.57
2023-04-13T18:17:24.398Z,8.57
2023-04-13T18:19:52.968Z,8.55
2023-04-13T18:22:20.522Z,8.57
2023-04-13T18:24:48.089Z,8.56
2023-04-13T18:27:16.224Z,8.59
2023-04-13T18:29:45.096Z,8.55
2023-04-13T18:32:12.648Z,8.54
2023-04-13T18:34:42.205Z,8.57
2023-04-13T18:37:09.726Z,8.60
2023-04-13T18:39:38.157Z,8.65
2023-04-13T18:42:07.544Z,8.67
2023-04-13T18:44:35.244Z,8.71
2023-04-13T18:47:04.206Z,8.68
2023-04-13T18:49:31.755Z,8.67
2023-04-13T18:51:59.382Z,8.65
2023-04-13T18:54:26.928Z,8.58
2023-04-13T18:56:54.518Z,8.45
2023-04-13T18:59:22.052Z,8.35
2023-04-13T19:01:49.673Z,8.20
2023-04-13T19:04:18.719Z,8.18
2023-04-13T19:06:46.306Z,8.16
2023-04-13T19:09:13.979Z,8.17
2023-04-13T19:11:49.103Z,8.22
2023-04-13T19:14:16.624Z,8.27
2023-04-13T19:16:45.612Z,8.28
2023-04-13T19:19:15.599Z,8.27
2023-04-13T19:21:44.557Z,8.20
2023-04-13T19:24:13.182Z,8.16
2023-04-13T19:26:40.906Z,8.18
2023-04-13T19:29:08.902Z,8.10
2023-04-13T19:31:37.974Z,7.97
2023-04-13T19:34:05.927Z,7.84
2023-04-13T19:36:33.512Z,7.73
2023-04-13T19:39:05.247Z,7.61
2023-04-13T19:41:33.576Z,7.55
2023-04-13T19:44:02.020Z,7.45
2023-04-13T19:46:32.608Z,7.33
2023-04-13T19:49:02.272Z,7.26
2023-04-13T19:51:30.082Z,7.20
2023-04-13T19:54:00.069Z,7.14
2023-04-13T19:56:30.671Z,7.09
2023-04-13T19:58:59.042Z,7.04
2023-04-13T20:01:26.684Z,6.98
2023-04-13T20:03:54.289Z,6.92
2023-04-13T20:06:21.882Z,6.87
2023-04-13T20:08:49.401Z,6.83
2023-04-13T20:11:16.983Z,6.80
2023-04-13T20:13:46.553Z,6.76
2023-04-13T20:16:14.125Z,6.74
2023-04-13T20:18:42.093Z,6.72
2023-04-13T20:21:10.718Z,6.78
2023-04-13T20:23:38.247Z,6.84
2023-04-13T20:26:05.889Z,6.94
2023-04-13T20:28:33.979Z,7.01
2023-04-13T20:31:02.961Z,7.03
2023-04-13T20:33:30.533Z,7.02
2023-04-13T20:35:58.032Z,6.98
2023-04-13T20:38:29.958Z,6.94
2023-04-13T20:40:59.187Z,6.92
2023-04-13T20:43:26.844Z,6.91
2023-04-13T20:45:57.305Z,6.88
2023-04-13T20:51:01.670Z,6.78
2023-04-13T20:53:29.746Z,6.74
2023-04-13T20:55:58.307Z,6.71
2023-04-13T20:58:26.046Z,6.73
2023-04-13T21:00:53.613Z,6.73
2023-04-13T21:03:21.959Z,6.70
2023-04-13T21:05:52.661Z,6.70
2023-04-13T21:08:20.967Z,6.75
2023-04-13T21:10:48.843Z,6.78
2023-04-13T21:13:16.706Z,6.71
2023-04-13T21:15:44.471Z,6.69
2023-04-13T21:18:12.279Z,6.68
2023-04-13T21:20:40.608Z,6.64
2023-04-13T21:23:09.443Z,6.64
2023-04-13T21:25:37.544Z,6.58
2023-04-13T21:28:05.370Z,6.51
2023-04-13T21:30:32.945Z,6.47
2023-04-13T21:33:00.783Z,6.43
2023-04-13T21:35:29.141Z,6.37
2023-04-13T21:37:56.673Z,6.30
2023-04-13T21:40:25.613Z,6.24
2023-04-13T21:42:53.098Z,6.21
2023-04-13T21:45:21.011Z,6.18
2023-04-13T21:47:48.523Z,6.18
2023-04-13T21:50:16.103Z,6.17
2023-04-13T21:52:43.700Z,6.17
2023-04-13T21:55:17.583Z,6.15
2023-04-13T21:57:46.581Z,6.10
2023-04-13T22:00:15.884Z,6.06
2023-04-13T22:02:43.649Z,6.04
2023-04-13T22:05:11.874Z,6.03
2023-04-13T22:07:43.012Z,6.02
2023-04-13T22:10:11.938Z,5.98
2023-04-13T22:12:39.566Z,5.97
2023-04-13T22:15:09.437Z,5.97
2023-04-13T22:17:37.241Z,5.94
2023-04-13T22:20:05.429Z,5.93
2023-04-13T22:22:32.941Z,6.02
2023-04-13T22:25:00.473Z,6.06
2023-04-13T22:27:28.245Z,6.11
2023-04-13T22:29:55.907Z,6.13
2023-04-13T22:32:24.788Z,6.08
2023-04-13T22:34:52.292Z,6.04
2023-04-13T22:37:19.782Z,5.98
2023-04-13T22:39:47.399Z,5.93
2023-04-13T22:42:14.918Z,5.87
2023-04-13T22:44:42.596Z,5.82
2023-04-13T22:47:10.117Z,5.76
2023-04-13T22:49:38.980Z,5.78
2023-04-13T22:52:06.468Z,5.84
2023-04-13T22:54:33.962Z,5.95
2023-04-13T22:57:04.048Z,6.04
2023-04-13T22:59:32.812Z,6.02
2023-04-13T23:02:01.724Z,5.98
2023-04-13T23:04:29.532Z,5.93
2023-04-13T23:06:58.479Z,5.86
2023-04-13T23:09:26.000Z,5.78
2023-04-13T23:11:53.581Z,5.70
2023-04-13T23:14:22.344Z,5.63
2023-04-13T23:16:50.039Z,5.58
2023-04-13T23:19:17.871Z,5.53
2023-04-13T23:21:45.462Z,5.49
2023-04-13T23:24:14.372Z,5.47
2023-04-13T23:26:41.898Z,5.49
2023-04-13T23:29:09.468Z,5.50
2023-04-13T23:31:37.114Z,5.48
2023-04-13T23:34:04.678Z,5.46
2023-04-13T23:36:33.695Z,5.46
2023-04-13T23:39:01.485Z,5.45
2023-04-13T23:41:30.731Z,5.44
2023-04-13T23:43:58.631Z,5.41
2023-04-13T23:46:26.488Z,5.39
2023-04-13T23:48:54.004Z,5.37
2023-04-13T23:51:22.599Z,5.35
2023-04-13T23:53:50.113Z,5.35
2023-04-13T23:56:17.664Z,5.36
2023-04-13T23:58:46.549Z,5.34
